Alexandria International Airport
KAEX : rendu visible

Aérodrome :











RETROUVEZ-NOUS SUR...

 
LOGIN :

S'inscrire | Disclaimer

   EN    FR    IT 

 









Légende :    VFR   VFR Marginal   IFR   IFR Intensif   IFR Très Intensif
Visi : 
Plafond : 
>= 8 km
>= 3000ft
5 à 8 km
1000 à 3000 ft
1500m à 5 km
500 à 1000 ft
800 à 1500m
200 à 500 ft
< 800m
< 200 ft
Symboles :   Orages  Brouillard  Fortes neiges  Fortes précipitations  Vent > 20 kt






- Altitude de l'aérodrome : 89 ft
- Code IATA : AEX


KAEX - Alexandria International

DERNIER METAR :
  • 222314Z 18004KT 2 1/2SM -RA BR SCT007 BKN017 OVC046 21/21 A2989 RMK AO2 P0021 T02060206

METARs EXPIRÉS :
  • 222253Z 28005KT 1/4SM +RA FG BKN008 OVC012 21/21 A2989 RMK AO2 RAB12 TSB30 SLP125 P0046 T02110206
  • 222230Z 21004KT 1 3/4SM TSRA BR BKN010 OVC075 22/21 A2989 RMK AO2 LTG DSNT NE RAB12 TSB30 P0006 T02170206
  • 222222Z 20004KT 2 1/2SM +RA BR BKN010 BKN055 OVC075 22/21 A2989 RMK AO2 LTG DSNT N AND NE RAB12 P0003 T02170206
  • 222153Z 17007KT 9SM VCTS OVC012 22/21 A2988 RMK AO2 LTG DSNT W-N RAB30E42 SLP120 P0000 T02170206
  • 222126Z 15006KT 10SM BKN011 BKN042 OVC050 22/21 A2988 RMK AO2 LTG DSNT W AND NW CIG 007V013 T02170206
  • 222053Z 14006KT 10SM FEW055 OVC085 22/21 A2989 RMK AO2 SLP123 60039 T02170211 58011

TAF KAEX
Valide du 22 à 22h jusqu'au 23 à 18h UTC


222217Z 2222/2318 17008KT P6SM -SHRA OVC012
TEMPO 2222/2301 3SM -RA BR FEW008 SCT015 OVC035
FM230100 23007KT P6SM -SHRA SCT014 OVC025
FM230600 32008KT P6SM BKN007 OVC015



MET'MAP, la Météo Aéronautique d'un coup d'oeil ! - Copyright ORBIFLY Décembre 2007 - Disclaimer

ORBIFLY MET'MAP TEAM :

Programmation & Développement : Alexandra Zaïnal
Conception & Développement : Baudouin d'Aumeries
Co-Programmation & Développement : Marc-Olivier Méhu
Soutien technique & logistique : Manuel Goepfert

Contact : metmap@orbifly.com




SOURCES & CREDITS :

   NOAA       Earth
Advisory